AirNav   Everest Fuels
 
 358 users online  

LA95 Abbeville General Hospital Heliport
Abbeville, Louisiana, USA

GOING TO ABBEVILLE?


FAA INFORMATION EFFECTIVE 08 SEPTEMBER 2022

Location

FAA Identifier: LA95
Lat/Long: 29-58-27.7000N 092-06-30.3600W
29-58.461667N 092-06.506000W
29.9743611,-92.1084333
(estimated)
Elevation: 13 ft. / 4 m (estimated)
Time zone: UTC -5 (UTC -6 during Standard Time)
Zip code: 70533

Heliport Operations

Heliport use: Private use. Permission required prior to landing
Activation date: 07/2007
Control tower: no
ARTCC: HOUSTON CENTER
FSS: DE RIDDER FLIGHT SERVICE STATION
Attendance: UNATNDD
Segmented circle: no
Lights: SS-SR

Heliport Communications

WX AWOS-3 at IYA (1.3 nm E): 118.875 (337-892-0526)
WX ASOS at ARA (12 nm E): 133.325 (337-365-0128)
WX ASOS at LFT (15 nm NE): 134.05 ((337)262-2757)

Nearby radio navigation aids

VOR radial/distance  VOR name  Freq  Var
LFTr202/14.5LAFAYETTE VORTAC109.8003E
LLAr032/23.2WHITE LAKE VOR/DME114.9504E

 
NDB name  Hdg/Dist  Freq  Var  ID
ABBEVILLE170/5.323002EBNZ -... -. --..
DURALDE151/39.326302EECY . -.-. -.--

Heliport Services

Runway Information

Helipad H1

Dimensions: 60 x 60 ft. / 18 x 18 m
Surface: concrete
Runway edge lights: PERI
ORANGE FATO LIGHTS ONLY.
Latitude: 29-58.461667N
Longitude: 092-06.506000W
Elevation: 13.0 ft.
Traffic pattern: leftleft

Heliport Ownership and Management from official FAA records

Ownership: Privately-owned
Owner: ABBEVILLE GENERAL HOSPITAL
118 N HOSPITAL DR
ABBEVILLE, LA 70510
Phone 337-898-6566
PHONE NUMBER IS TO THE MAINTENANCE OFC.
Manager: MELVIN ROMERO
118 N HOSPITAL DR
ABBEVILLE, LA 70510
Phone 337-898-6566
PHONE NUMBER IS TO THE MAINTENANCE OFC.

Additional Remarks

ER PHONE NUMBER 337-898-6471
FOR CD CTC LAFAYETTE APCH AT 337-262-2729, WHEN APCH CLSD CTC HOUSTON ARTCC AT 281-230-5622.

Instrument Procedures

There are no published instrument procedures at LA95.

Some nearby airports with instrument procedures:

KIYA - Abbeville Chris Crusta Memorial Airport (1 nm E)
KARA - Acadiana Regional Airport (12 nm E)
KLFT - Lafayette Regional Airport/Paul Fournet Field (15 nm NE)
3R7 - Jennings Airport (33 nm NW)
4R7 - Eunice Airport (34 nm NW)
 
Loc | Ops | Rwys | IFR | FBO | Links
Com | Nav | Svcs | Stats | Notes
Aerial photo
No photo
 
Sectional chart

 
Airport distance calculator
Flying to Abbeville General Hospital Heliport? Find the distance to fly.

From to LA95

Sunrise and sunset
Times for 02-Oct-2022
 Local
(UTC-5)
 Zulu
(UTC)
Morning civil twilight06:3911:39
Sunrise07:0312:03
Sunset18:5223:52
Evening civil twilight19:1600:16

Current date and time
Zulu (UTC)  02-Oct-2022 09:15:17
Local (UTC-5)  02-Oct-2022 04:15:17
 
METAR
KIYA 020855Z AUTO 00000KT 10SM CLR 11/08 A3005 RMK AO2 T01090080
K0R3  118.875
No observation available
KARA 
12nm E 
020853Z AUTO 35005KT 10SM CLR 14/10 A3004 RMK AO2 SLP172 T01390100 50001 $
KLFT 
15nm NE 
020853Z AUTO 00000KT 10SM CLR 13/11 A3005 RMK AO2 SLP174 T01280111 50002
TAF
KARA 
12nm E 
020520Z 0206/0306 VRB03KT P6SM SKC FM021500 01007KT P6SM SKC FM030100 VRB03KT P6SM SKC
KLFT 
15nm NE 
020520Z 0206/0306 VRB04KT P6SM SKC FM021500 01007KT P6SM SKC FM030100 VRB03KT P6SM SKC
NOTAMs
Click for the latest NOTAMs
NOTAMs are issued by the DoD/FAA and will open in a separate window not controlled by AirNav.

 

 
 

Would you like to see your business listed on this page?

 If your business provides an interesting product or service to pilots, flight crews, aircraft, or users of the Abbeville General Hospital Heliport, you should consider listing it here.  To start the listing process, click on the button below
 
Add a business
 

Other Pages about Abbeville General Hospital Heliport

Update a link
 
Copyright © AirNav, LLC. All rights reserved. Privacy Policy  Contact